FYWB

Walvis Bay Airport

Walvis Bay, Namibia
METAR FYWB 231000Z 29002KT 9999 OVC018 19/15 Q1012
Observed Flight Rules
Feb-23 @ 10:00 UTC (33 minutes ago) Marginal Visual Flight Rules
Wind Visibility Clouds
290° at 2 knots 10,000+ meters
  • Overcast at 1,800' AGL
Temperatures Readings
Current 19°C / 66°F
Dewpoint 15°C / 59°F
Humidity 78%
Altimeter 29.88" Hg
Pressure 1012 hPa
Elevation 46
METAR FYWB 231000Z 29002KT 9999 OVC018 19/15 Q1012
Observed Flight Rules
Feb-23 @ 10:00 UTC
(33 minutes ago)
MVFR
Wind Visibility
290° at 2 knots 10,000+ meters
Clouds
  • Overcast at 1,800' AGL
Temperature Dewpoint
19°C / 66°F 15°C / 59°F
Humidity Altimeter Pressure
78% 29.88" Hg 1012 hPa